This is the latest recevied weather packets stored in our database for station/object SK0BO-13. If no packets are shown the sender has not sent any weather packets the latest 10 day(s).
| Time | Temp. | Humidity | Pressure | Rain* | Wind** | Luminosity | Snow |
|---|---|---|---|---|---|---|---|
| 1777836162 | 11.67° C | 19% | 991.9 hPa | 0 mm | - | - | - |
| 1777833643 | 12.22° C | 17% | 992 hPa | 0 mm | - | - | - |
| 1777831122 | 13.33° C | 16% | 992 hPa | 0 mm | - | - | - |
| 1777828602 | 13.89° C | 15% | 992.6 hPa | 0 mm | - | - | - |
| 1777826082 | 15° C | 13% | 992.7 hPa | 0 mm | - | - | - |
| 1777823562 | 15.56° C | 11% | 992.7 hPa | 0 mm | - | - | - |
| 1777821042 | 15° C | 12% | 992.7 hPa | 0 mm | - | - | - |
| 1777818522 | 15° C | 10% | 992.7 hPa | 0 mm | - | - | - |
| 1777816002 | 15.56° C | 10% | 994.3 hPa | 0 mm | - | - | - |
| 1777813483 | 16.11° C | 10% | 994.3 hPa | 0 mm | - | - | - |
| 1777810962 | 15° C | 10% | 994.7 hPa | 0 mm | - | - | - |
| 1777808442 | 15.56° C | 10% | 994.7 hPa | 0 mm | - | - | - |
| 1777805922 | 15° C | 12% | 994.7 hPa | 0 mm | - | - | - |
| 1777803402 | 15° C | 12% | 994.5 hPa | 0 mm | - | - | - |
| 1777800882 | 14.44° C | 15% | 994.7 hPa | 0 mm | - | - | - |
| 1777798363 | 13.33° C | 19% | 994.6 hPa | 0 mm | - | - | - |
| 1777795843 | 12.78° C | 20% | 992.9 hPa | 0 mm | - | - | - |
| 1777793322 | 12.78° C | 21% | 992.7 hPa | 0 mm | - | - | - |
| 1777790802 | 12.22° C | 23% | 992.7 hPa | 0 mm | - | - | - |
| 1777788282 | 12.22° C | 23% | 992.7 hPa | 0 mm | - | - | - |
| 1777785762 | 12.78° C | 23% | 992.7 hPa | 0 mm | - | - | - |
| 1777783242 | 13.89° C | 25% | 991.8 hPa | 0 mm | - | - | - |
| 1777780722 | 14.44° C | 22% | 991.7 hPa | 0 mm | - | - | - |
| 1777778202 | 14.44° C | 18% | 990.7 hPa | 0 mm | - | - | - |
| 1777775682 | 15° C | 14% | 990.7 hPa | 0 mm | - | - | - |
* Rain latest hour (hover to see other rain measurements)
** Current wind speed in m/s (hover to see current wind gust speed)